Time;durP1;ratioP1;P1;durP2;ratioP2;P2;SDS_P1;SDS_P2;PMS_P1;PMS_P2;Temp;Humidity;BMP_temperature;BMP_pressure;BME280_temperature;BME280_humidity;BME280_pressure;Samples;Min_cycle;Max_cycle;Signal;HPM_P1;HPM_P2
2023/03/20 00:02:20;;;;;;;5.53;4.30;;;10.20;66.10;;;5.64;100.00;95787.22;4979160;28;20034;-55
2023/03/20 00:04:45;;;;;;;5.57;4.38;;;10.30;66.20;;;5.67;100.00;95789.41;4990282;28;20027;-52
2023/03/20 00:07:11;;;;;;;6.82;4.45;;;10.30;66.00;;;5.71;100.00;95786.09;4979117;28;20507;-56
2023/03/20 00:09:38;;;;;;;5.80;4.80;;;10.30;66.00;;;5.73;100.00;95793.78;4986645;28;20025;-54
2023/03/20 00:12:05;;;;;;;6.07;4.68;;;10.40;66.00;;;5.75;100.00;95797.81;4995621;28;20025;-54
2023/03/20 00:14:34;;;;;;;6.15;4.93;;;10.40;66.00;;;5.80;100.00;95792.66;4995783;28;20388;-54
2023/03/20 00:17:00;;;;;;;7.32;4.63;;;10.50;66.20;;;5.85;100.00;95789.28;4987733;28;20030;-53
2023/03/20 00:19:29;;;;;;;7.35;5.07;;;10.50;66.20;;;5.87;100.00;95789.09;4984231;28;20033;-55
2023/03/20 00:21:56;;;;;;;7.38;5.05;;;10.50;66.10;;;5.90;100.00;95797.34;4994385;28;20105;-57
2023/03/20 00:24:23;;;;;;;7.05;4.50;;;10.60;66.10;;;5.95;100.00;95799.34;4983509;28;20392;-57
2023/03/20 00:26:52;;;;;;;6.70;4.57;;;10.60;66.00;;;5.95;100.00;95794.84;4982857;28;20057;-54
2023/03/20 00:29:31;;;;;;;8.63;5.63;;;10.60;66.00;;;5.99;100.00;95789.94;4981769;28;20029;-56
2023/03/20 00:31:59;;;;;;;6.40;5.10;;;10.70;66.20;;;6.03;100.00;95791.06;5007688;28;20113;-56
2023/03/20 00:34:28;;;;;;;6.65;5.30;;;10.70;66.10;;;6.08;100.00;95787.72;4990614;28;20061;-56
2023/03/20 00:36:55;;;;;;;7.00;5.20;;;10.80;66.20;;;6.12;100.00;95800.25;4986410;28;20023;-57
2023/03/20 00:39:22;;;;;;;6.30;5.03;;;10.80;66.10;;;6.16;100.00;95787.38;4991010;28;20676;-55
2023/03/20 00:42:01;;;;;;;7.07;5.05;;;10.80;66.20;;;6.17;100.00;95789.81;4985888;28;20034;-58
2023/03/20 00:44:44;;;;;;;9.32;5.72;;;10.90;66.20;;;6.22;100.00;95783.81;4989453;28;20071;-54
2023/03/20 00:47:20;;;;;;;9.00;5.75;;;10.90;66.20;;;6.25;100.00;95792.09;4990542;28;20474;-57
2023/03/20 00:49:50;;;;;;;6.57;5.00;;;11.00;66.10;;;6.24;100.00;95787.03;4983451;28;20044;-54
2023/03/20 00:52:19;;;;;;;6.95;5.47;;;11.00;66.10;;;6.25;100.00;95791.28;4986320;28;20021;-56
2023/03/20 00:54:46;;;;;;;8.60;5.78;;;11.00;66.00;;;6.29;100.00;95787.13;4985734;28;20048;-55
2023/03/20 00:57:34;;;;;;;10.63;5.70;;;11.00;66.00;;;6.31;100.00;95786.91;4981487;28;20045;-57
2023/03/20 01:00:23;;;;;;;9.27;6.28;;;11.10;66.20;;;6.34;100.00;95789.09;4994491;28;20429;-55
2023/03/20 01:02:55;;;;;;;10.68;6.28;;;11.10;66.10;;;6.36;100.00;95789.66;4985624;28;20053;-55
2023/03/20 01:05:21;;;;;;;7.47;5.68;;;11.10;66.10;;;6.38;100.00;95783.09;5005366;28;20115;-54
2023/03/20 01:07:47;;;;;;;7.90;5.90;;;11.10;66.00;;;6.39;100.00;95778.59;4985881;28;20026;-58
2023/03/20 01:10:14;;;;;;;9.65;6.82;;;11.10;66.00;;;6.39;100.00;95782.06;4983597;28;20381;-54
2023/03/20 01:12:42;;;;;;;7.07;5.43;;;11.10;66.00;;;6.40;100.00;95778.38;4985590;28;20057;-56
2023/03/20 01:15:32;;;;;;;8.77;5.80;;;11.10;66.00;;;6.43;100.00;95775.28;4963168;28;20049;-56
2023/03/20 01:17:59;;;;;;;9.88;5.53;;;11.10;66.10;;;6.45;100.00;95789.03;4983111;28;20501;-57
2023/03/20 01:20:29;;;;;;;9.38;6.55;;;11.10;65.90;;;6.44;100.00;95779.50;4987993;28;20131;-57
2023/03/20 01:22:55;;;;;;;10.60;6.60;;;11.20;66.20;;;6.45;100.00;95778.47;4979942;28;20030;-54
2023/03/20 01:25:22;;;;;;;8.02;5.85;;;11.20;66.10;;;6.47;100.00;95784.34;4988493;28;20034;-54
2023/03/20 01:27:54;;;;;;;7.50;5.78;;;11.20;66.10;;;6.47;100.00;95780.91;4986725;28;20419;-55
2023/03/20 01:30:28;;;;;;;7.22;6.13;;;11.20;66.20;;;6.47;100.00;95786.97;4982055;28;20026;-54
2023/03/20 01:32:58;;;;;;;8.30;6.05;;;11.30;66.20;;;6.49;100.00;95781.47;4981710;28;20034;-56
2023/03/20 01:35:27;;;;;;;8.85;6.50;;;11.20;66.10;;;6.50;100.00;95780.44;5005161;28;20052;-56
2023/03/20 01:37:55;;;;;;;9.88;6.32;;;11.30;66.20;;;6.51;100.00;95786.53;4988086;28;20033;-57
2023/03/20 01:40:56;;;;;;;9.80;6.30;;;11.30;66.10;;;6.51;100.00;95789.97;4983468;28;20025;-53
2023/03/20 01:43:24;;;;;;;10.05;7.38;;;11.30;66.20;;;6.52;100.00;95781.00;4987496;28;20047;-54
2023/03/20 01:46:17;;;;;;;10.05;7.32;;;11.30;66.00;;;6.55;100.00;95787.66;4986962;28;20028;-54
2023/03/20 01:48:48;;;;;;;11.13;6.63;;;11.30;66.10;;;6.58;100.00;95788.00;4986345;28;20389;-56
2023/03/20 01:51:20;;;;;;;8.90;6.38;;;11.40;66.10;;;6.56;100.00;95789.28;4980378;28;20025;-52
2023/03/20 01:54:11;;;;;;;9.95;7.18;;;11.40;66.10;;;6.58;100.00;95789.84;4994471;28;20045;-54
2023/03/20 01:56:53;;;;;;;9.57;6.95;;;11.40;66.20;;;6.61;100.00;95790.19;4984949;28;20057;-54
2023/03/20 01:59:30;;;;;;;11.10;6.75;;;11.40;66.30;;;6.62;100.00;95775.91;4979194;28;20018;-55
2023/03/20 02:01:58;;;;;;;11.00;7.30;;;11.40;66.30;;;6.62;100.00;95786.50;4993093;28;20121;-56
2023/03/20 02:04:35;;;;;;;9.98;7.35;;;11.40;66.10;;;6.61;100.00;95782.25;4988746;28;20030;-54
2023/03/20 02:07:05;;;;;;;8.60;6.78;;;11.40;66.30;;;6.64;100.00;95783.59;4979742;28;20048;-57
2023/03/20 02:09:31;;;;;;;13.77;7.07;;;11.40;66.10;;;6.64;100.00;95780.97;4985291;28;20441;-54
2023/03/20 02:12:00;;;;;;;11.80;7.50;;;11.40;66.10;;;6.61;100.00;95790.19;4989619;28;20018;-54
2023/03/20 02:14:28;;;;;;;10.10;7.47;;;11.40;66.20;;;6.56;100.00;95782.13;4984998;28;20082;-55
2023/03/20 02:16:54;;;;;;;11.75;7.60;;;11.40;66.20;;;6.56;100.00;95776.84;4987693;28;20068;-53
2023/03/20 02:19:46;;;;;;;11.52;7.22;;;11.30;66.20;;;6.57;100.00;95780.28;4982101;28;20377;-55
2023/03/20 02:22:43;;;;;;;12.88;8.30;;;11.30;67.10;;;6.57;100.00;95782.94;4974680;28;20029;-55
2023/03/20 02:25:41;;;;;;;10.93;7.63;;;11.30;66.30;;;6.54;100.00;95792.16;4987384;28;20396;-55
2023/03/20 02:28:45;;;;;;;15.98;8.73;;;11.30;66.40;;;6.57;100.00;95786.38;4971814;28;20095;-55
2023/03/20 02:31:54;;;;;;;14.50;9.30;;;11.30;66.40;;;6.58;100.00;95790.66;5006002;28;20058;-53
2023/03/20 02:35:14;;;;;;;15.75;9.90;;;11.30;66.40;;;6.58;100.00;95800.41;4990198;28;20041;-58
2023/03/20 02:38:13;;;;;;;13.82;9.77;;;11.30;66.50;;;6.59;100.00;95794.09;4987154;28;20032;-58
2023/03/20 02:41:09;;;;;;;13.55;9.30;;;11.20;66.50;;;6.59;100.00;95805.50;4985101;28;20056;-58
2023/03/20 02:44:29;;;;;;;13.48;9.23;;;11.30;66.70;;;6.59;100.00;95799.41;4992929;28;20021;-58
2023/03/20 02:47:03;;;;;;;14.05;9.15;;;11.30;66.60;;;6.56;100.00;95805.97;4979179;28;20489;-58
2023/03/20 02:50:16;;;;;;;15.55;8.95;;;11.30;66.40;;;6.57;100.00;95807.56;4987458;28;20109;-58
2023/03/20 02:53:15;;;;;;;15.15;9.57;;;11.30;66.50;;;6.61;100.00;95803.44;4985891;28;20072;-58
2023/03/20 02:56:03;;;;;;;12.52;8.50;;;11.30;66.60;;;6.60;100.00;95801.81;4987337;28;20080;-58
2023/03/20 02:58:50;;;;;;;15.57;8.85;;;11.30;66.60;;;6.60;100.00;95808.94;4998921;28;20492;-58
2023/03/20 03:01:37;;;;;;;14.68;8.95;;;11.30;66.60;;;6.59;100.00;95802.03;4992676;28;20481;-58
2023/03/20 03:04:21;;;;;;;12.48;7.78;;;11.30;66.50;;;6.59;100.00;95805.50;4990004;28;20057;-58
2023/03/20 03:06:54;;;;;;;13.45;8.73;;;11.30;66.40;;;6.58;100.00;95814.47;4986850;28;20022;-58
2023/03/20 03:09:43;;;;;;;12.35;8.82;;;11.30;66.40;;;6.57;100.00;95823.44;4977300;28;20027;-58
2023/03/20 03:12:24;;;;;;;13.45;8.95;;;11.30;66.60;;;6.57;100.00;95822.63;4989786;28;20033;-58
2023/03/20 03:15:12;;;;;;;16.65;8.90;;;11.30;66.60;;;6.58;100.00;95821.59;4992563;28;20029;-58
2023/03/20 03:17:46;;;;;;;13.48;8.90;;;11.30;66.60;;;6.56;100.00;95826.34;4983024;28;20427;-58
2023/03/20 03:20:38;;;;;;;16.75;9.65;;;11.30;66.50;;;6.53;100.00;95817.00;4984457;28;20437;-58
2023/03/20 03:23:06;;;;;;;14.13;9.23;;;11.20;66.50;;;6.50;100.00;95825.41;4990439;28;20029;-58
2023/03/20 03:25:40;;;;;;;16.05;8.65;;;11.20;66.40;;;6.43;100.00;95824.75;4979823;28;20032;-58
2023/03/20 03:28:38;;;;;;;13.45;8.93;;;11.20;66.60;;;6.41;100.00;95821.50;4988606;28;20026;-58
2023/03/20 03:31:17;;;;;;;15.27;9.02;;;11.10;66.60;;;6.39;100.00;95828.88;4969526;28;20035;-58
2023/03/20 03:33:57;;;;;;;14.75;8.63;;;11.10;66.70;;;6.43;100.00;95835.31;4983089;28;20029;-58
2023/03/20 03:37:01;;;;;;;15.23;9.57;;;11.10;66.80;;;6.42;100.00;95839.00;4978605;28;20022;-58
2023/03/20 03:39:53;;;;;;;14.43;9.13;;;11.10;66.80;;;6.41;100.00;95840.03;4989274;28;20063;-57
2023/03/20 03:42:51;;;;;;;12.77;8.13;;;11.10;66.90;;;6.42;100.00;95839.78;4952658;28;20049;-58
2023/03/20 03:45:56;;;;;;;16.90;8.20;;;11.10;66.90;;;6.41;100.00;95840.84;4993334;28;20109;-57
2023/03/20 03:48:36;;;;;;;13.65;8.68;;;11.10;66.80;;;6.40;100.00;95849.81;5003878;28;20057;-58
2023/03/20 03:51:15;;;;;;;13.32;8.68;;;11.10;66.90;;;6.42;100.00;95846.94;5003559;28;20029;-58
2023/03/20 03:54:02;;;;;;;13.38;8.00;;;11.10;66.90;;;6.41;100.00;95848.78;4979722;28;20053;-58
2023/03/20 03:56:37;;;;;;;15.43;8.88;;;11.10;66.90;;;6.43;100.00;95851.22;4991884;28;20049;-55
2023/03/20 03:59:48;;;;;;;12.77;8.48;;;11.00;66.80;;;6.40;100.00;95852.47;4989612;28;20034;-58
2023/03/20 04:02:20;;;;;;;12.15;7.35;;;11.10;66.90;;;6.38;100.00;95857.19;4922802;29;20102;-57
2023/03/20 04:04:52;;;;;;;11.65;7.22;;;11.00;66.80;;;6.34;100.00;95853.38;4966913;28;20041;-58
2023/03/20 04:07:18;;;;;;;10.48;7.40;;;11.10;66.90;;;6.34;100.00;95844.66;4983614;28;20045;-58
2023/03/20 04:09:44;;;;;;;12.23;7.70;;;11.00;66.70;;;6.36;100.00;95855.78;4987914;28;20141;-58
2023/03/20 04:12:42;;;;;;;11.38;7.13;;;11.00;66.70;;;6.35;100.00;95856.84;4991407;28;20065;-58
2023/03/20 04:15:13;;;;;;;10.68;7.30;;;11.00;66.80;;;6.35;100.00;95856.84;4990802;28;20022;-55
2023/03/20 04:17:39;;;;;;;12.68;8.38;;;11.00;66.70;;;6.34;100.00;95855.25;4992015;28;20056;-57
2023/03/20 04:20:08;;;;;;;13.95;8.10;;;11.00;66.70;;;6.32;100.00;95852.81;4988363;28;20022;-56
2023/03/20 04:22:34;;;;;;;14.25;8.35;;;11.10;66.70;;;6.28;100.00;95869.38;4982027;28;20034;-58
2023/03/20 04:25:04;;;;;;;13.38;8.27;;;11.00;66.70;;;6.28;100.00;95867.53;4988485;28;20377;-57
2023/03/20 04:27:30;;;;;;;12.93;7.97;;;11.00;66.70;;;6.29;100.00;95863.06;4987872;28;20026;-58
2023/03/20 04:29:56;;;;;;;13.48;8.60;;;11.00;66.70;;;6.30;100.00;95875.22;4990721;28;20029;-58
2023/03/20 04:32:23;;;;;;;12.57;8.23;;;11.00;66.70;;;6.29;100.00;95873.63;4982696;28;20029;-58
2023/03/20 04:34:49;;;;;;;13.40;8.65;;;11.00;66.80;;;6.29;100.00;95869.13;4990311;28;20024;-58
2023/03/20 04:37:15;;;;;;;13.40;7.93;;;11.00;66.70;;;6.29;100.00;95871.78;4988788;28;20030;-58
2023/03/20 04:39:41;;;;;;;14.73;7.53;;;11.00;66.80;;;6.29;100.00;95878.91;4979356;28;20029;-58
2023/03/20 04:42:09;;;;;;;14.07;8.60;;;11.00;66.80;;;6.28;100.00;95877.31;4989205;28;20108;-58
2023/03/20 04:44:35;;;;;;;12.20;7.68;;;11.00;66.90;;;6.28;100.00;95875.47;4985012;28;20489;-58
2023/03/20 04:47:01;;;;;;;10.88;7.63;;;11.00;66.90;;;6.29;100.00;95871.78;4991094;28;20033;-55
2023/03/20 04:49:27;;;;;;;13.00;6.93;;;11.00;66.90;;;6.27;100.00;95873.88;4985089;28;20018;-57
2023/03/20 04:51:54;;;;;;;15.30;7.25;;;11.00;67.00;;;6.28;100.00;95870.19;4986467;28;20026;-56
2023/03/20 04:54:21;;;;;;;13.18;6.93;;;10.90;66.90;;;6.22;100.00;95871.91;4985196;28;20156;-58
2023/03/20 04:56:47;;;;;;;10.73;6.75;;;10.90;67.00;;;6.21;100.00;95875.59;4987066;28;20416;-58
2023/03/20 04:59:13;;;;;;;11.80;7.10;;;11.00;67.00;;;6.18;100.00;95869.97;4994245;28;20029;-57
2023/03/20 05:01:39;;;;;;;12.63;6.85;;;10.90;66.90;;;6.19;100.00;95875.00;4987834;28;20025;-58
2023/03/20 05:04:05;;;;;;;9.65;7.03;;;10.90;66.90;;;6.16;100.00;95864.88;4980983;28;20533;-57
2023/03/20 05:06:32;;;;;;;9.73;6.63;;;10.90;66.90;;;6.11;100.00;95864.78;4986053;28;20041;-58
2023/03/20 05:08:59;;;;;;;10.73;6.68;;;10.90;66.90;;;6.10;100.00;95868.44;4991115;28;20176;-57
2023/03/20 05:11:27;;;;;;;11.20;6.72;;;10.80;66.80;;;6.05;100.00;95863.06;4992972;28;20038;-55
2023/03/20 05:13:53;;;;;;;10.88;6.65;;;10.80;66.80;;;5.99;100.00;95863.97;4994635;28;20021;-53
2023/03/20 05:16:19;;;;;;;10.68;6.72;;;10.70;66.70;;;5.95;100.00;95862.78;5008859;28;20026;-53
2023/03/20 05:18:45;;;;;;;15.15;7.03;;;10.70;66.60;;;5.88;100.00;95854.94;4981407;28;20030;-54
2023/03/20 05:21:11;;;;;;;11.07;6.65;;;10.60;66.60;;;5.80;100.00;95855.28;4983365;28;20028;-53
2023/03/20 05:23:37;;;;;;;12.27;6.68;;;10.60;66.50;;;5.72;100.00;95856.41;4980329;28;20030;-55
2023/03/20 05:26:04;;;;;;;9.63;6.93;;;10.40;66.40;;;5.67;100.00;95852.81;4992154;28;20032;-52
2023/03/20 05:28:30;;;;;;;18.52;7.32;;;10.40;66.50;;;5.59;100.00;95853.97;4986120;28;20034;-54
2023/03/20 05:30:56;;;;;;;13.45;6.45;;;10.30;66.40;;;5.48;100.00;95867.94;4986177;28;20086;-56
2023/03/20 05:33:22;;;;;;;11.52;6.50;;;10.20;66.30;;;5.41;100.00;95868.03;4989919;28;20057;-51
2023/03/20 05:35:48;;;;;;;13.38;7.45;;;10.10;66.40;;;5.32;100.00;95869.38;4994521;28;20460;-51
2023/03/20 05:38:14;;;;;;;11.55;6.95;;;10.10;66.40;;;5.23;100.00;95871.56;4989067;28;20058;-53
2023/03/20 05:40:43;;;;;;;12.30;7.03;;;10.00;66.40;;;5.15;100.00;95877.13;4981682;28;20049;-53
2023/03/20 05:43:08;;;;;;;13.65;7.00;;;9.90;66.40;;;5.05;100.00;95885.59;4988460;28;20436;-54
2023/03/20 05:45:34;;;;;;;12.75;6.82;;;9.80;66.40;;;4.92;100.00;95883.13;4990418;28;20048;-54
2023/03/20 05:48:00;;;;;;;9.95;5.97;;;9.70;66.40;;;4.82;100.00;95894.16;4988076;28;20022;-51
2023/03/20 05:50:26;;;;;;;10.93;6.43;;;9.60;66.40;;;4.73;100.00;95892.88;4991637;28;20349;-54
2023/03/20 05:52:52;;;;;;;11.55;6.45;;;9.60;66.40;;;4.66;100.00;95892.13;4988287;28;20484;-53
2023/03/20 05:55:18;;;;;;;14.18;6.43;;;9.50;66.40;;;4.58;100.00;95897.69;4986054;28;20503;-50
2023/03/20 05:57:44;;;;;;;16.02;6.60;;;9.40;66.40;;;4.47;100.00;95898.41;4992181;28;20092;-51
2023/03/20 06:00:10;;;;;;;10.95;6.38;;;9.40;66.40;;;4.41;100.00;95905.34;4994369;28;20049;-54
2023/03/20 06:02:37;;;;;;;12.75;6.03;;;9.30;66.40;;;4.39;100.00;95905.59;4987768;28;20137;-51
2023/03/20 06:05:03;;;;;;;15.30;5.68;;;9.30;66.40;;;4.39;100.00;95902.16;4982230;28;20022;-50
2023/03/20 06:07:29;;;;;;;10.93;6.13;;;9.30;66.60;;;4.38;100.00;95898.69;4980723;28;20030;-55
2023/03/20 06:09:55;;;;;;;13.00;5.88;;;9.30;66.60;;;4.33;100.00;95897.75;4988290;28;20499;-53
2023/03/20 06:12:21;;;;;;;14.38;6.63;;;9.30;66.60;;;4.33;100.00;95888.00;4980661;28;20025;-53
2023/03/20 06:14:47;;;;;;;13.15;6.95;;;9.30;66.70;;;4.34;100.00;95883.53;4993600;28;20038;-55
2023/03/20 06:17:13;;;;;;;16.92;8.38;;;9.30;66.80;;;4.38;100.00;95888.13;4990134;28;20022;-53
2023/03/20 06:19:39;;;;;;;17.20;7.60;;;9.30;66.90;;;4.44;100.00;95886.47;4985813;28;20068;-50
2023/03/20 06:22:05;;;;;;;13.90;6.90;;;9.30;67.00;;;4.49;100.00;95893.72;4974688;28;20022;-52
2023/03/20 06:24:32;;;;;;;11.98;6.53;;;9.30;67.10;;;4.52;100.00;95895.94;4991091;28;20029;-54
2023/03/20 06:26:58;;;;;;;13.48;7.00;;;9.30;67.20;;;4.51;100.00;95903.03;4981512;28;20022;-54
2023/03/20 06:29:24;;;;;;;16.73;7.25;;;9.30;67.20;;;4.50;100.00;95895.34;4983681;28;20033;-54
2023/03/20 06:31:50;;;;;;;13.55;6.55;;;9.30;67.20;;;4.51;100.00;95895.13;4980114;28;20029;-52
2023/03/20 06:34:16;;;;;;;13.85;6.65;;;9.30;67.20;;;4.50;100.00;95901.41;4992106;28;20033;-54
2023/03/20 06:36:42;;;;;;;12.05;7.47;;;9.30;67.30;;;4.57;100.00;95901.34;4979172;28;20036;-54
2023/03/20 06:39:08;;;;;;;13.38;6.43;;;9.30;67.40;;;4.66;100.00;95899.22;4992378;28;20040;-51
2023/03/20 06:41:34;;;;;;;13.75;6.88;;;9.40;67.50;;;4.77;100.00;95901.97;4992433;28;20025;-54
2023/03/20 06:43:59;;;;;;;14.40;6.82;;;9.50;67.60;;;4.90;100.00;95908.91;4992119;28;20427;-56
2023/03/20 06:46:25;;;;;;;14.25;6.45;;;9.60;67.70;;;5.03;100.00;95905.31;4990950;28;20033;-56
2023/03/20 06:48:51;;;;;;;17.02;6.25;;;9.70;67.80;;;5.13;100.00;95910.06;4986895;28;20084;-56
2023/03/20 06:51:17;;;;;;;11.15;5.13;;;9.80;67.90;;;5.19;100.00;95910.00;4992158;28;20061;-54
2023/03/20 06:53:43;;;;;;;8.68;4.70;;;9.90;67.90;;;5.28;100.00;95921.84;4992328;28;20064;-55
2023/03/20 06:56:11;;;;;;;11.45;5.18;;;10.10;68.10;;;5.46;100.00;95920.22;4988442;28;20503;-50
2023/03/20 06:58:37;;;;;;;8.85;4.97;;;10.30;68.00;;;5.65;100.00;95932.34;4991603;28;20030;-52
2023/03/20 07:01:16;;;;;;;9.43;4.90;;;10.60;68.10;;;5.82;100.00;95929.88;4982823;28;20018;-52
2023/03/20 07:03:42;;;;;;;8.77;4.88;;;10.90;68.10;;;5.97;100.00;95930.28;4990949;28;20025;-53
2023/03/20 07:06:10;;;;;;;8.43;5.25;;;11.10;67.80;;;6.21;100.00;95931.16;4991552;28;20050;-53
2023/03/20 07:08:37;;;;;;;10.63;4.90;;;11.30;67.70;;;6.51;100.00;95929.44;4990901;28;20034;-52
2023/03/20 07:11:04;;;;;;;6.20;4.22;;;11.70;67.70;;;6.72;100.00;95937.59;4989726;28;20381;-51
2023/03/20 07:13:31;;;;;;;6.25;4.18;;;12.10;67.60;;;6.89;100.00;95932.41;4991073;28;20045;-51
2023/03/20 07:16:00;;;;;;;8.95;4.50;;;12.30;67.20;;;6.94;100.00;95943.09;4986300;28;20105;-55
2023/03/20 07:18:26;;;;;;;6.82;4.63;;;12.50;67.00;;;6.97;100.00;95933.09;4987883;28;20025;-55
2023/03/20 07:21:00;;;;;;;5.38;3.90;;;12.60;66.50;;;7.11;100.00;95935.25;4992529;28;20023;-50
2023/03/20 07:23:26;;;;;;;6.38;4.38;;;12.80;66.30;;;7.40;100.00;95933.44;4990111;28;20045;-50
2023/03/20 07:25:52;;;;;;;4.35;3.42;;;13.10;66.00;;;7.76;100.00;95923.50;4991960;28;20578;-53
2023/03/20 07:28:18;;;;;;;4.88;2.78;;;13.50;65.70;;;8.31;100.00;95925.50;4991350;28;20073;-55
2023/03/20 07:30:44;;;;;;;2.72;2.53;;;14.00;65.20;;;8.75;98.68;95925.66;4991550;28;20026;-52
2023/03/20 07:33:10;;;;;;;2.65;2.42;;;14.50;64.60;;;9.08;96.11;95926.59;4991140;28;20065;-52
2023/03/20 07:35:38;;;;;;;3.88;2.70;;;14.90;63.70;;;9.36;90.48;95917.66;4991403;28;20120;-53
2023/03/20 07:38:05;;;;;;;2.50;2.30;;;15.30;62.90;;;9.78;90.32;95925.03;4992192;28;20025;-53
2023/03/20 07:40:32;;;;;;;4.00;2.35;;;15.80;62.00;;;10.18;86.64;95931.78;4980719;28;20037;-55
2023/03/20 07:42:58;;;;;;;2.97;2.58;;;16.40;61.30;;;10.29;81.90;95930.84;4989784;28;20033;-51
2023/03/20 07:45:24;;;;;;;3.92;2.90;;;16.80;60.40;;;10.32;80.19;95930.34;4991385;28;20013;-51
2023/03/20 07:47:50;;;;;;;3.63;2.30;;;17.00;59.60;;;10.57;80.10;95923.59;4992233;28;20460;-54
2023/03/20 07:50:16;;;;;;;2.38;2.15;;;17.20;58.90;;;10.70;78.61;95923.16;4992074;28;20032;-53
2023/03/20 07:52:50;;;;;;;3.08;2.78;;;17.30;58.30;;;10.85;77.31;95928.59;4991164;28;20033;-51
2023/03/20 07:55:17;;;;;;;2.60;2.40;;;17.50;57.40;;;11.26;76.23;95926.13;4992513;28;20022;-50
2023/03/20 07:57:43;;;;;;;3.35;2.50;;;18.00;56.80;;;11.75;74.72;95927.63;4991093;28;20165;-51
2023/03/20 08:00:11;;;;;;;2.88;2.53;;;18.50;56.30;;;12.20;71.38;95926.94;4980149;28;20477;-50
2023/03/20 08:02:37;;;;;;;2.90;2.70;;;19.00;55.50;;;12.59;67.99;95920.25;4985034;28;20026;-53
2023/03/20 08:05:04;;;;;;;2.90;2.60;;;19.40;54.90;;;12.80;67.64;95923.69;4974620;28;20041;-54
2023/03/20 08:07:30;;;;;;;3.20;2.90;;;19.80;54.00;;;13.11;67.71;95929.78;4985363;28;20026;-53
2023/03/20 08:09:56;;;;;;;3.15;2.85;;;20.10;53.50;;;13.10;67.42;95931.66;4979171;28;20025;-58
2023/03/20 08:12:22;;;;;;;3.25;2.75;;;20.20;53.00;;;13.03;67.91;95938.34;4991537;28;20020;-57
2023/03/20 08:14:48;;;;;;;3.42;2.72;;;20.00;52.60;;;12.82;67.45;95940.28;4990971;28;20040;-58
2023/03/20 08:17:14;;;;;;;2.63;2.42;;;19.80;52.40;;;12.76;68.32;95939.47;4990553;28;20053;-58
2023/03/20 08:19:40;;;;;;;3.22;2.88;;;19.50;52.20;;;12.83;68.33;95939.19;4992221;28;20037;-57
2023/03/20 08:22:06;;;;;;;3.53;3.22;;;19.30;52.10;;;12.49;66.62;95942.44;4989531;28;20026;-58
2023/03/20 08:24:32;;;;;;;3.47;3.17;;;19.10;52.00;;;12.33;68.33;95932.81;4991491;28;20080;-58
2023/03/20 08:26:58;;;;;;;3.50;3.20;;;18.90;52.00;;;12.18;67.55;95938.94;4990904;28;20105;-56
2023/03/20 08:29:24;;;;;;;3.53;3.22;;;18.60;51.90;;;12.06;67.90;95939.19;4990968;28;20480;-57
2023/03/20 08:31:50;;;;;;;4.40;3.33;;;18.60;51.80;;;12.26;67.76;95938.44;5010708;28;20040;-58
2023/03/20 08:34:15;;;;;;;3.38;2.60;;;18.70;51.60;;;12.64;65.91;95938.97;4992845;28;20026;-58
2023/03/20 08:36:41;;;;;;;2.45;2.00;;;19.00;51.30;;;12.86;63.21;95949.34;4994347;28;20053;-55
2023/03/20 08:39:08;;;;;;;3.20;2.60;;;19.20;50.80;;;13.12;61.16;95944.75;4994941;28;20038;-57
2023/03/20 08:41:37;;;;;;;2.55;2.35;;;19.40;51.10;;;13.46;61.66;95947.63;4994604;28;20551;-54
2023/03/20 08:44:05;;;;;;;2.55;2.35;;;19.80;50.20;;;13.88;59.63;95938.31;4995184;28;20087;-57
2023/03/20 08:46:32;;;;;;;3.15;2.70;;;20.20;49.70;;;14.30;59.42;95940.47;4994560;28;20021;-57
2023/03/20 08:48:59;;;;;;;2.78;2.58;;;20.60;49.30;;;14.55;57.64;95954.78;4994567;28;20056;-56
2023/03/20 08:51:26;;;;;;;3.00;2.65;;;21.10;48.60;;;14.56;58.49;95945.66;4994232;28;20022;-57
2023/03/20 08:53:52;;;;;;;4.00;2.58;;;21.40;48.00;;;14.78;57.37;95937.94;4994541;28;20064;-57
2023/03/20 08:56:18;;;;;;;2.70;2.50;;;21.60;47.50;;;14.75;56.02;95935.84;4992853;28;20033;-56
2023/03/20 08:58:44;;;;;;;2.83;2.50;;;21.60;47.00;;;15.02;55.35;95943.38;4993171;28;20428;-59
2023/03/20 09:01:11;;;;;;;3.83;2.65;;;21.80;46.60;;;15.14;54.12;95940.31;4994206;28;20104;-59
2023/03/20 09:03:37;;;;;;;3.00;2.70;;;22.00;45.80;;;15.06;56.22;95940.13;4991701;28;20397;-57
2023/03/20 09:06:08;;;;;;;3.10;2.80;;;22.20;45.70;;;15.28;55.10;95946.56;4994889;28;20025;-58
2023/03/20 09:08:35;;;;;;;2.47;2.28;;;22.40;45.00;;;15.55;54.93;95947.09;4994635;28;20021;-59
2023/03/20 09:11:01;;;;;;;2.55;2.35;;;22.60;44.80;;;16.01;52.42;95947.31;4990331;28;20044;-59
2023/03/20 09:13:27;;;;;;;2.53;2.33;;;23.00;44.50;;;16.06;50.52;95941.88;4994802;28;20175;-59
2023/03/20 09:15:55;;;;;;;2.60;2.40;;;23.30;43.50;;;16.37;50.09;95941.44;4991018;28;20022;-57
2023/03/20 09:18:22;;;;;;;2.35;2.20;;;23.60;42.70;;;16.54;50.56;95944.38;4992437;28;20388;-58
2023/03/20 09:20:49;;;;;;;1.95;1.85;;;23.70;42.60;;;16.78;50.28;95952.38;4980565;28;20025;-59
2023/03/20 09:23:18;;;;;;;2.50;2.10;;;23.80;42.20;;;17.07;50.42;95944.03;4977779;28;20057;-59
2023/03/20 09:25:43;;;;;;;2.40;2.20;;;24.20;41.90;;;17.24;52.48;95948.88;4985653;28;20030;-59
2023/03/20 09:28:10;;;;;;;3.75;2.40;;;24.40;41.60;;;16.75;48.77;95944.06;4990068;28;20484;-57
2023/03/20 09:30:36;;;;;;;3.05;2.20;;;24.40;41.20;;;16.92;50.30;95954.28;4994241;28;20461;-57
2023/03/20 09:33:02;;;;;;;2.28;2.08;;;24.30;40.90;;;16.65;49.68;95950.41;5009191;28;20116;-58
2023/03/20 09:35:28;;;;;;;2.20;2.00;;;24.20;40.70;;;16.71;49.55;95954.59;4993386;28;20112;-57
2023/03/20 09:37:55;;;;;;;3.28;1.85;;;24.10;40.40;;;16.76;48.74;95954.53;4976797;28;20071;-58
2023/03/20 09:40:30;;;;;;;2.22;1.80;;;24.00;40.20;;;16.62;52.04;95949.09;4993272;28;20370;-56
2023/03/20 09:43:28;;;;;;;2.70;2.50;;;24.10;40.20;;;17.17;49.21;95950.34;5007755;28;20473;-56
2023/03/20 09:46:27;;;;;;;2.55;2.35;;;24.60;39.40;;;17.61;48.24;95943.56;4991520;28;20099;-59
2023/03/20 09:49:32;;;;;;;1.95;1.58;;;25.30;39.70;;;17.60;45.66;95947.38;4993758;28;20018;-59
2023/03/20 09:52:14;;;;;;;1.63;1.45;;;25.50;38.40;;;17.44;47.15;95949.56;4992751;28;20381;-59
2023/03/20 09:54:52;;;;;;;2.03;1.50;;;25.20;38.20;;;16.77;45.66;95945.41;4996091;28;20033;-59
2023/03/20 09:57:38;;;;;;;1.85;1.75;;;24.80;37.80;;;15.99;48.06;95946.03;4992248;28;20022;-57
2023/03/20 10:00:30;;;;;;;2.75;1.52;;;24.40;37.50;;;16.23;47.92;95937.88;4986321;28;20036;-59
2023/03/20 10:03:03;;;;;;;2.65;1.90;;;23.90;37.80;;;16.30;48.27;95935.63;5008824;28;20037;-58
2023/03/20 10:05:47;;;;;;;1.50;1.40;;;23.70;38.10;;;15.91;48.23;95939.41;4992556;28;20053;-55
2023/03/20 10:08:24;;;;;;;1.52;1.20;;;23.40;37.90;;;16.01;48.09;95938.47;4992957;28;20064;-55
2023/03/20 10:11:22;;;;;;;1.45;1.17;;;23.10;38.20;;;15.69;47.09;95943.44;4988738;28;20069;-59
2023/03/20 10:14:21;;;;;;;1.60;1.50;;;22.70;38.20;;;15.54;48.48;95942.78;4993491;28;20030;-58
2023/03/20 10:17:25;;;;;;;2.72;1.20;;;22.40;38.50;;;15.06;49.50;95938.22;4991636;28;20301;-56
2023/03/20 10:20:08;;;;;;;2.42;1.55;;;22.00;38.90;;;14.93;51.91;95939.69;5007508;28;20024;-55
2023/03/20 10:22:47;;;;;;;2.83;1.50;;;21.80;39.50;;;14.67;53.25;95944.50;4991544;28;20018;-57
2023/03/20 10:26:10;;;;;;;1.42;1.30;;;21.50;39.80;;;14.42;51.81;95937.44;5008726;28;20503;-57
2023/03/20 10:29:17;;;;;;;3.13;1.23;;;21.30;40.20;;;14.19;56.47;95944.28;4997299;28;20061;-58
2023/03/20 10:32:02;;;;;;;2.13;1.63;;;21.10;40.00;;;14.14;54.24;95943.53;4992159;28;20029;-58
2023/03/20 10:34:56;;;;;;;1.73;1.52;;;20.90;40.40;;;14.09;56.49;95936.31;4991596;28;20191;-56
2023/03/20 10:38:27;;;;;;;1.88;1.70;;;20.90;40.60;;;14.10;54.55;95948.63;4984441;28;20025;-58
2023/03/20 10:40:56;;;;;;;1.70;1.60;;;20.80;40.90;;;14.04;55.75;95939.84;4970141;28;20152;-58
2023/03/20 10:43:38;;;;;;;4.43;1.40;;;20.90;40.80;;;14.11;55.68;95934.19;4991051;28;20105;-56
2023/03/20 10:46:13;;;;;;;1.63;1.30;;;21.00;40.70;;;14.31;55.44;95938.59;5002272;28;20477;-58